createdAt,value
2018-12-05T00:00:21.852Z,83.47
2018-12-05T00:02:49.247Z,83.09
2018-12-05T00:05:16.579Z,82.49
2018-12-05T00:07:44.936Z,81.63
2018-12-05T00:10:12.394Z,81.60
2018-12-05T00:12:39.711Z,81.60
2018-12-05T00:15:07.587Z,81.28
2018-12-05T00:17:35.391Z,81.06
2018-12-05T00:20:03.120Z,81.05
2018-12-05T00:22:30.539Z,81.05
2018-12-05T00:24:57.847Z,81.76
2018-12-05T00:27:25.151Z,81.50
2018-12-05T00:29:52.439Z,82.47
2018-12-05T00:32:19.755Z,82.42
2018-12-05T00:34:47.022Z,81.81
2018-12-05T00:37:14.394Z,82.27
2018-12-05T00:39:41.663Z,82.06
2018-12-05T00:42:09.070Z,81.63
2018-12-05T00:44:36.450Z,81.59
2018-12-05T00:47:03.764Z,81.62
2018-12-05T00:49:31.062Z,81.52
2018-12-05T00:51:58.330Z,82.90
2018-12-05T00:54:25.590Z,82.66
2018-12-05T00:56:52.910Z,84.00
2018-12-05T00:59:20.198Z,83.62
2018-12-05T01:01:47.503Z,84.20
2018-12-05T01:04:14.779Z,84.31
2018-12-05T01:06:42.319Z,84.28
2018-12-05T01:09:11.951Z,85.31
2018-12-05T01:11:40.248Z,84.89
2018-12-05T01:14:07.557Z,86.04
2018-12-05T01:16:51.907Z,85.09
2018-12-05T01:19:19.187Z,85.13
2018-12-05T01:21:46.458Z,85.00
2018-12-05T01:24:13.772Z,85.03
2018-12-05T01:26:41.103Z,84.74
2018-12-05T01:29:08.522Z,85.26
2018-12-05T01:31:35.819Z,85.77
2018-12-05T01:34:03.163Z,86.29
2018-12-05T01:36:30.446Z,86.44
2018-12-05T01:38:57.742Z,87.35
2018-12-05T01:41:25.046Z,88.35
2018-12-05T01:43:52.662Z,88.32
2018-12-05T01:46:19.952Z,87.90
2018-12-05T01:48:47.230Z,88.46
2018-12-05T01:51:14.540Z,88.04
2018-12-05T01:53:41.822Z,87.86
2018-12-05T01:56:09.107Z,88.00
2018-12-05T01:58:37.459Z,89.14
2018-12-05T02:01:04.770Z,88.63
2018-12-05T02:03:32.074Z,89.59
2018-12-05T02:05:59.378Z,90.33
2018-12-05T02:08:26.715Z,90.35
2018-12-05T02:10:54.002Z,90.17
2018-12-05T02:13:21.299Z,90.03
2018-12-05T02:15:48.592Z,90.30
2018-12-05T02:18:15.886Z,90.08
2018-12-05T02:20:43.426Z,90.11
2018-12-05T02:23:10.718Z,90.17
2018-12-05T02:25:38.498Z,89.96
2018-12-05T02:28:06.843Z,90.15
2018-12-05T02:30:34.146Z,90.95
2018-12-05T02:33:02.407Z,91.54
2018-12-05T02:35:29.722Z,90.82
2018-12-05T02:37:57.034Z,90.42
2018-12-05T02:40:24.306Z,91.00
2018-12-05T02:42:51.594Z,91.14
2018-12-05T02:45:18.900Z,91.23
2018-12-05T02:47:46.284Z,91.39
2018-12-05T02:50:13.682Z,91.31
2018-12-05T02:52:40.970Z,91.91
2018-12-05T02:55:08.274Z,92.03
2018-12-05T02:57:35.574Z,92.00
2018-12-05T03:00:04.642Z,91.79
2018-12-05T03:02:33.968Z,91.63
2018-12-05T03:05:01.303Z,92.07
2018-12-05T03:07:28.610Z,92.04
2018-12-05T03:09:55.975Z,92.18
2018-12-05T03:12:23.275Z,92.13
2018-12-05T03:14:50.554Z,92.32
2018-12-05T03:17:17.840Z,92.67
2018-12-05T03:19:45.114Z,92.24
2018-12-05T03:22:12.543Z,92.60
2018-12-05T03:24:39.824Z,92.84
2018-12-05T03:27:07.118Z,92.66
2018-12-05T03:29:34.414Z,92.33
2018-12-05T03:32:03.788Z,91.90
2018-12-05T03:34:31.171Z,92.48
2018-12-05T03:36:58.514Z,91.68
2018-12-05T03:39:25.859Z,92.10
2018-12-05T03:41:53.155Z,92.56
2018-12-05T03:44:20.446Z,92.13
2018-12-05T03:46:47.755Z,91.98
2018-12-05T03:49:15.138Z,92.04
2018-12-05T03:51:42.434Z,91.57
2018-12-05T03:54:09.702Z,91.76
2018-12-05T03:56:36.994Z,91.75
2018-12-05T03:59:04.408Z,91.05
2018-12-05T04:01:31.721Z,90.62
2018-12-05T04:03:59.117Z,90.68
2018-12-05T04:06:26.442Z,90.21
2018-12-05T04:08:53.808Z,89.97
2018-12-05T04:11:21.139Z,89.70
2018-12-05T04:13:48.664Z,88.96
2018-12-05T04:16:16.015Z,89.03
2018-12-05T04:18:43.328Z,89.70
2018-12-05T04:21:10.651Z,88.99
2018-12-05T04:23:37.987Z,88.97
2018-12-05T04:26:05.311Z,88.69
2018-12-05T04:28:32.616Z,88.15
2018-12-05T04:30:59.947Z,88.80
2018-12-05T04:33:29.317Z,87.89
2018-12-05T04:35:56.627Z,88.57
2018-12-05T04:38:23.976Z,89.24
2018-12-05T04:40:51.342Z,88.41
2018-12-05T04:43:18.664Z,88.33
2018-12-05T04:45:46.018Z,88.61
2018-12-05T04:48:13.311Z,88.78
2018-12-05T04:50:40.718Z,89.22
2018-12-05T04:53:08.014Z,89.26
2018-12-05T04:55:36.423Z,88.57
2018-12-05T04:58:03.748Z,89.21
2018-12-05T05:00:31.791Z,89.24
2018-12-05T05:02:59.206Z,89.88
2018-12-05T05:05:26.735Z,89.89
2018-12-05T05:07:54.037Z,89.59
2018-12-05T05:10:21.339Z,89.97
2018-12-05T05:12:48.663Z,89.85
2018-12-05T05:15:17.006Z,90.08
2018-12-05T05:17:45.366Z,89.89
2018-12-05T05:20:12.787Z,89.99
2018-12-05T05:22:40.113Z,90.02
2018-12-05T05:25:07.654Z,89.94
2018-12-05T05:27:34.970Z,90.80
2018-12-05T05:30:02.815Z,90.91
2018-12-05T05:32:30.258Z,90.13
2018-12-05T05:34:57.543Z,89.81
2018-12-05T05:37:24.849Z,90.71
2018-12-05T05:39:53.414Z,90.61
2018-12-05T05:42:20.730Z,90.97
2018-12-05T05:44:48.059Z,90.63
2018-12-05T05:47:15.374Z,90.27
2018-12-05T05:49:42.702Z,90.59
2018-12-05T05:52:10.047Z,90.70
2018-12-05T05:54:37.333Z,90.42
2018-12-05T05:57:04.770Z,91.10
2018-12-05T05:59:32.041Z,91.37
2018-12-05T06:01:59.363Z,91.09
2018-12-05T06:04:26.690Z,90.94
2018-12-05T06:06:54.070Z,91.67
2018-12-05T06:09:21.375Z,91.05
2018-12-05T06:11:48.719Z,91.04
2018-12-05T06:14:16.031Z,90.86
2018-12-05T06:16:43.351Z,91.47
2018-12-05T06:19:10.669Z,90.99
2018-12-05T06:21:38.054Z,90.95
2018-12-05T06:24:05.523Z,91.10
2018-12-05T06:26:32.844Z,91.90
2018-12-05T06:29:00.175Z,90.43
2018-12-05T06:31:27.499Z,90.60
2018-12-05T06:33:54.956Z,90.66
2018-12-05T06:36:22.303Z,90.61
2018-12-05T06:38:49.617Z,90.20
2018-12-05T06:41:16.915Z,90.55
2018-12-05T06:43:44.226Z,90.05
2018-12-05T06:46:11.547Z,90.30
2018-12-05T06:48:38.884Z,90.29
2018-12-05T06:51:06.299Z,90.82
2018-12-05T06:53:33.615Z,90.33
2018-12-05T06:56:00.938Z,90.46
2018-12-05T06:58:28.250Z,90.30
2018-12-05T07:00:55.559Z,90.05
2018-12-05T07:03:22.911Z,90.35
2018-12-05T07:05:50.236Z,90.87
2018-12-05T07:08:17.589Z,90.16
2018-12-05T07:10:44.915Z,90.45
2018-12-05T07:13:12.258Z,91.31
2018-12-05T07:15:39.679Z,90.11
2018-12-05T07:18:07.067Z,89.94
2018-12-05T07:20:34.374Z,90.06
2018-12-05T07:23:01.978Z,90.38
2018-12-05T07:25:29.319Z,90.33
2018-12-05T07:27:56.618Z,90.71
2018-12-05T07:30:29.418Z,91.19
2018-12-05T07:32:53.310Z,91.18
2018-12-05T07:35:20.647Z,90.45
2018-12-05T07:37:47.955Z,90.34
2018-12-05T07:40:16.487Z,90.90
2018-12-05T07:42:44.127Z,91.59
2018-12-05T07:45:11.451Z,91.41
2018-12-05T07:47:38.746Z,91.09
2018-12-05T07:50:06.251Z,90.21
2018-12-05T07:52:33.572Z,90.70
2018-12-05T07:55:00.895Z,90.63
2018-12-05T07:57:28.215Z,90.67
2018-12-05T07:59:55.687Z,89.80
2018-12-05T08:02:23.009Z,89.67
2018-12-05T08:04:50.474Z,89.32
2018-12-05T08:07:17.832Z,89.58
2018-12-05T08:09:45.171Z,88.82
2018-12-05T08:12:12.489Z,89.02
2018-12-05T08:14:39.824Z,89.00
2018-12-05T08:17:07.118Z,89.55
2018-12-05T08:19:34.483Z,88.21
2018-12-05T08:22:01.967Z,88.43
2018-12-05T08:24:29.331Z,87.69
2018-12-05T08:26:56.816Z,87.70
2018-12-05T08:29:24.159Z,87.36
2018-12-05T08:31:51.510Z,87.22
2018-12-05T08:34:18.842Z,86.16
2018-12-05T08:36:46.187Z,85.80
2018-12-05T08:39:13.650Z,86.30
2018-12-05T08:41:41.104Z,86.01
2018-12-05T08:44:08.535Z,86.85
2018-12-05T08:46:35.983Z,85.67
2018-12-05T08:49:03.449Z,84.54
2018-12-05T08:51:30.962Z,83.82
2018-12-05T08:53:58.324Z,83.64
2018-12-05T08:56:25.668Z,83.77
2018-12-05T08:58:53.087Z,83.00
2018-12-05T09:01:20.551Z,82.28
2018-12-05T09:03:48.067Z,83.50
2018-12-05T09:06:15.631Z,81.60
2018-12-05T09:08:43.100Z,82.60
2018-12-05T09:11:10.439Z,81.54
2018-12-05T09:13:37.911Z,82.19
2018-12-05T09:16:05.250Z,82.20
2018-12-05T09:18:32.603Z,82.16
2018-12-05T09:20:59.939Z,82.19
2018-12-05T09:23:27.242Z,80.59
2018-12-05T09:25:54.731Z,81.05
2018-12-05T09:28:22.167Z,80.79
2018-12-05T09:30:49.496Z,79.61
2018-12-05T09:33:17.911Z,80.33
2018-12-05T09:35:45.239Z,79.45
2018-12-05T09:38:12.579Z,80.33
2018-12-05T09:40:39.920Z,80.69
2018-12-05T09:43:07.261Z,79.91
2018-12-05T09:45:34.571Z,79.78
2018-12-05T09:48:03.195Z,77.97
2018-12-05T09:50:30.508Z,78.84
2018-12-05T09:52:57.951Z,78.17
2018-12-05T09:55:25.375Z,78.25
2018-12-05T09:57:52.920Z,78.56
2018-12-05T10:00:20.251Z,79.19
2018-12-05T10:02:47.812Z,79.72
2018-12-05T10:05:15.131Z,79.19
2018-12-05T10:07:42.474Z,78.96
2018-12-05T10:10:09.819Z,78.72
2018-12-05T10:12:37.150Z,78.39
2018-12-05T10:15:05.641Z,78.93
2018-12-05T10:17:32.994Z,79.74
2018-12-05T10:20:00.418Z,78.74
2018-12-05T10:22:27.763Z,78.28
2018-12-05T10:24:55.082Z,76.98
2018-12-05T10:27:22.591Z,77.83
2018-12-05T10:29:49.927Z,77.44
2018-12-05T10:32:17.255Z,78.20
2018-12-05T10:34:44.576Z,78.03
2018-12-05T10:37:12.023Z,77.46
2018-12-05T10:39:39.355Z,78.85
2018-12-05T10:42:06.731Z,77.79
2018-12-05T10:44:34.163Z,79.12
2018-12-05T10:47:01.621Z,78.44
2018-12-05T10:49:29.099Z,78.67
2018-12-05T10:51:56.542Z,77.44
2018-12-05T10:54:23.871Z,77.03
2018-12-05T10:56:51.327Z,77.06
2018-12-05T10:59:18.661Z,77.78
2018-12-05T11:01:51.659Z,78.80
2018-12-05T11:04:24.667Z,78.72
2018-12-05T11:06:57.670Z,79.07
2018-12-05T11:09:30.903Z,78.35
2018-12-05T11:12:03.899Z,78.59
2018-12-05T11:14:37.063Z,79.12
2018-12-05T11:17:10.167Z,78.70
2018-12-05T11:19:43.199Z,78.38
2018-12-05T11:23:14.683Z,78.06
2018-12-05T11:25:43.163Z,79.01
2018-12-05T11:28:10.496Z,78.05
2018-12-05T11:30:37.815Z,79.32
2018-12-05T11:33:05.162Z,79.88
2018-12-05T11:35:32.458Z,79.65
2018-12-05T11:37:59.761Z,80.23
2018-12-05T11:40:27.239Z,80.67
2018-12-05T11:42:54.675Z,80.79
2018-12-05T11:45:21.986Z,80.81
2018-12-05T11:47:49.306Z,80.77
2018-12-05T11:50:16.610Z,81.34
2018-12-05T11:52:43.923Z,81.31
2018-12-05T11:55:11.319Z,81.50
2018-12-05T11:57:38.627Z,82.35
2018-12-05T12:00:07.063Z,80.82
2018-12-05T12:02:34.379Z,82.45
2018-12-05T12:05:04.158Z,82.89
2018-12-05T12:07:31.494Z,83.13
2018-12-05T12:09:59.110Z,83.37
2018-12-05T12:12:32.192Z,83.35
2018-12-05T12:14:59.622Z,82.86
2018-12-05T12:17:27.086Z,83.19
2018-12-05T12:19:54.384Z,83.52
2018-12-05T12:22:21.703Z,83.33
2018-12-05T12:24:49.016Z,81.82
2018-12-05T12:27:16.568Z,81.81
2018-12-05T12:29:44.003Z,82.37
2018-12-05T12:32:11.310Z,80.61
2018-12-05T12:34:38.639Z,78.52
2018-12-05T12:37:05.950Z,76.49
2018-12-05T12:39:33.255Z,75.29
2018-12-05T12:42:00.548Z,77.49
2018-12-05T12:44:27.899Z,78.30
2018-12-05T12:46:55.204Z,78.62
2018-12-05T12:49:22.524Z,78.56
2018-12-05T12:51:49.827Z,78.19
2018-12-05T12:54:17.131Z,77.41
2018-12-05T12:56:44.435Z,75.61
2018-12-05T12:59:11.756Z,75.71
2018-12-05T13:01:39.058Z,78.47
2018-12-05T13:04:06.394Z,78.41
2018-12-05T13:06:33.794Z,78.35
2018-12-05T13:09:01.906Z,78.40
2018-12-05T13:11:31.591Z,78.22
2018-12-05T13:13:58.907Z,78.39
2018-12-05T13:16:26.212Z,79.81
2018-12-05T13:18:53.535Z,80.37
2018-12-05T13:21:21.847Z,79.60
2018-12-05T13:23:49.175Z,79.48
2018-12-05T13:26:16.475Z,79.54
2018-12-05T13:28:43.825Z,80.02
2018-12-05T13:31:12.068Z,81.68
2018-12-05T13:33:39.342Z,82.01
2018-12-05T13:36:06.806Z,80.10
2018-12-05T13:38:34.102Z,80.23
2018-12-05T13:41:01.482Z,80.61
2018-12-05T13:43:30.103Z,81.62
2018-12-05T13:45:57.522Z,82.63
2018-12-05T13:48:25.047Z,82.31
2018-12-05T13:50:52.472Z,82.66
2018-12-05T13:53:19.831Z,82.38
2018-12-05T13:55:48.250Z,83.31
2018-12-05T13:58:15.847Z,82.21
2018-12-05T14:00:43.311Z,83.35
2018-12-05T14:03:10.616Z,83.04
2018-12-05T14:05:39.263Z,83.57
2018-12-05T14:08:06.570Z,82.70
2018-12-05T14:10:33.891Z,84.12
2018-12-05T14:13:01.263Z,83.97
2018-12-05T14:15:28.644Z,83.78
2018-12-05T14:18:01.363Z,83.42
2018-12-05T14:20:25.459Z,84.18
2018-12-05T14:22:52.771Z,85.17
2018-12-05T14:25:20.082Z,85.28
2018-12-05T14:27:47.708Z,86.46
2018-12-05T14:30:15.077Z,85.96
2018-12-05T14:32:42.558Z,85.89
2018-12-05T14:35:09.944Z,86.75
2018-12-05T14:37:37.380Z,86.40
2018-12-05T14:40:05.285Z,86.41
2018-12-05T14:42:33.783Z,87.12
2018-12-05T14:45:01.133Z,86.75
2018-12-05T14:47:28.418Z,88.08
2018-12-05T14:49:55.941Z,87.21
2018-12-05T14:52:23.236Z,87.92
2018-12-05T14:54:50.523Z,88.07
2018-12-05T14:57:18.001Z,87.48
2018-12-05T14:59:45.312Z,87.84
2018-12-05T15:02:12.622Z,88.36
2018-12-05T15:04:40.167Z,88.65
2018-12-05T15:07:07.471Z,89.33
2018-12-05T15:09:34.819Z,89.37
2018-12-05T15:12:02.188Z,88.46
2018-12-05T15:14:29.499Z,88.85
2018-12-05T15:16:56.847Z,89.74
2018-12-05T15:19:24.251Z,88.18
2018-12-05T15:21:51.655Z,89.02
2018-12-05T15:24:18.980Z,89.61
2018-12-05T15:26:46.442Z,90.03
2018-12-05T15:29:17.239Z,90.57
2018-12-05T15:31:44.675Z,90.10
2018-12-05T15:34:12.140Z,90.31
2018-12-05T15:36:40.591Z,89.02
2018-12-05T15:39:08.055Z,89.48
2018-12-05T15:41:35.659Z,88.96
2018-12-05T15:44:02.979Z,89.81
2018-12-05T15:46:30.295Z,89.36
2018-12-05T15:48:57.740Z,90.05
2018-12-05T15:51:25.063Z,90.20
2018-12-05T15:53:52.403Z,89.61
2018-12-05T15:56:19.743Z,89.72
2018-12-05T15:58:47.061Z,89.89
2018-12-05T16:01:14.382Z,89.41
2018-12-05T16:03:43.375Z,89.85
2018-12-05T16:06:11.028Z,89.50
2018-12-05T16:08:38.335Z,89.42
2018-12-05T16:11:05.980Z,88.79
2018-12-05T16:13:33.287Z,89.30
2018-12-05T16:16:00.588Z,89.86
2018-12-05T16:18:27.923Z,89.62
2018-12-05T16:20:55.275Z,89.02
2018-12-05T16:23:22.754Z,89.08
2018-12-05T16:25:50.072Z,88.89
2018-12-05T16:28:17.514Z,89.11
2018-12-05T16:30:44.819Z,89.62
2018-12-05T16:33:12.141Z,89.80
2018-12-05T16:35:39.445Z,89.66
2018-12-05T16:38:06.931Z,89.06
2018-12-05T16:40:34.263Z,89.77
2018-12-05T16:43:01.595Z,89.79
2018-12-05T16:48:21.803Z,89.68
2018-12-05T16:50:49.151Z,89.33
2018-12-05T16:53:16.515Z,89.35
2018-12-05T16:55:43.823Z,89.12
2018-12-05T16:58:11.271Z,88.45
2018-12-05T17:00:38.602Z,88.77
2018-12-05T17:03:05.967Z,88.48
2018-12-05T17:05:33.307Z,88.13
2018-12-05T17:08:00.646Z,88.24
2018-12-05T17:10:27.972Z,88.24
2018-12-05T17:12:55.539Z,87.70
2018-12-05T17:15:22.896Z,88.39
2018-12-05T17:17:51.280Z,87.93
2018-12-05T17:20:18.642Z,87.05
2018-12-05T17:22:46.003Z,87.20
2018-12-05T17:25:13.347Z,87.39
2018-12-05T17:27:40.658Z,87.11
2018-12-05T17:30:08.238Z,86.92
2018-12-05T17:32:35.595Z,86.60
2018-12-05T17:35:03.720Z,86.97
2018-12-05T17:37:31.072Z,87.14
2018-12-05T17:39:58.408Z,87.37
2018-12-05T17:42:27.075Z,86.50
2018-12-05T17:44:54.391Z,85.73
2018-12-05T17:47:21.727Z,85.10
2018-12-05T17:49:49.095Z,83.77
2018-12-05T17:52:16.415Z,83.45
2018-12-05T17:55:00.698Z,83.78
2018-12-05T17:57:28.979Z,84.40
2018-12-05T17:59:56.299Z,84.76
2018-12-05T18:02:23.592Z,84.83
2018-12-05T18:04:51.947Z,84.39
2018-12-05T18:07:19.252Z,84.66
2018-12-05T18:09:46.554Z,84.01
2018-12-05T18:12:13.868Z,85.03
2018-12-05T18:14:42.388Z,84.11
2018-12-05T18:17:09.734Z,84.25
2018-12-05T18:19:37.128Z,83.58
2018-12-05T18:22:04.469Z,83.20
2018-12-05T18:24:31.827Z,83.71
2018-12-05T18:26:59.272Z,83.44
2018-12-05T18:29:26.659Z,83.30
2018-12-05T18:31:53.995Z,81.90
2018-12-05T18:34:21.351Z,82.13
2018-12-05T18:36:48.668Z,82.05
2018-12-05T18:39:16.019Z,82.41
2018-12-05T18:41:43.364Z,81.01
2018-12-05T18:44:10.751Z,80.90
2018-12-05T18:46:38.091Z,80.60
2018-12-05T18:49:05.462Z,79.60
2018-12-05T18:51:32.784Z,80.38
2018-12-05T18:54:00.137Z,80.59
2018-12-05T18:56:27.490Z,80.31
2018-12-05T18:58:54.849Z,78.96
2018-12-05T19:01:22.199Z,79.10
2018-12-05T19:03:49.633Z,78.90
2018-12-05T19:06:16.953Z,77.93
2018-12-05T19:08:44.299Z,77.78
2018-12-05T19:11:11.663Z,76.73
2018-12-05T19:13:45.061Z,77.45
2018-12-05T19:16:12.432Z,77.15
2018-12-05T19:18:39.938Z,76.71
2018-12-05T19:21:07.277Z,76.69
2018-12-05T19:23:34.598Z,75.60
2018-12-05T19:26:01.943Z,75.69
2018-12-05T19:28:29.439Z,74.96
2018-12-05T19:30:56.780Z,77.04
2018-12-05T19:33:24.091Z,75.54
2018-12-05T19:35:52.490Z,75.77
2018-12-05T19:38:20.619Z,74.30
2018-12-05T19:40:48.067Z,74.71
2018-12-05T19:43:15.383Z,73.91
2018-12-05T19:45:42.931Z,74.99
2018-12-05T19:48:10.270Z,75.32
2018-12-05T19:50:37.588Z,74.62
2018-12-05T19:53:04.906Z,74.45
2018-12-05T19:55:32.204Z,73.89
2018-12-05T19:58:00.550Z,73.78
2018-12-05T20:00:28.190Z,74.18
2018-12-05T20:02:57.564Z,74.16
2018-12-05T20:08:55.846Z,74.75
2018-12-05T20:11:23.342Z,74.86
2018-12-05T20:13:50.639Z,74.85
2018-12-05T20:16:19.534Z,74.19
2018-12-05T20:18:46.859Z,73.99
2018-12-05T20:21:14.146Z,74.44
2018-12-05T20:23:41.447Z,74.44
2018-12-05T20:26:08.773Z,74.25
2018-12-05T20:28:36.097Z,73.82
2018-12-05T20:31:03.477Z,73.88
2018-12-05T20:33:30.816Z,73.60
2018-12-05T20:35:58.140Z,73.75
2018-12-05T20:38:25.499Z,73.10
2018-12-05T20:40:52.829Z,72.41
2018-12-05T20:43:20.159Z,72.92
2018-12-05T20:45:47.493Z,72.81
2018-12-05T20:48:14.898Z,71.65
2018-12-05T20:50:43.275Z,72.38
2018-12-05T20:53:10.612Z,71.96
2018-12-05T20:55:38.059Z,71.20
2018-12-05T20:58:05.567Z,72.32
2018-12-05T21:00:32.895Z,72.39
2018-12-05T21:03:00.247Z,71.77
2018-12-05T21:05:27.676Z,71.22
2018-12-05T21:07:55.339Z,71.75
2018-12-05T21:10:22.703Z,72.64
2018-12-05T21:12:50.006Z,71.90
2018-12-05T21:15:17.366Z,71.38
2018-12-05T21:17:44.801Z,71.77
2018-12-05T21:20:12.163Z,71.32
2018-12-05T21:22:46.925Z,71.40
2018-12-05T21:25:08.838Z,71.41
2018-12-05T21:27:36.179Z,71.18
2018-12-05T21:30:05.913Z,70.86
2018-12-05T21:32:33.229Z,71.78
2018-12-05T21:35:00.555Z,70.84
2018-12-05T21:37:27.863Z,71.71
2018-12-05T21:39:55.183Z,71.63
2018-12-05T21:42:22.623Z,70.89
2018-12-05T21:44:49.938Z,70.93
2018-12-05T21:47:17.230Z,71.77
2018-12-05T21:49:44.552Z,71.62
2018-12-05T21:52:11.891Z,70.90
2018-12-05T21:54:39.194Z,71.13
2018-12-05T21:57:06.635Z,71.40
2018-12-05T21:59:34.075Z,71.82
2018-12-05T22:02:01.483Z,71.92
2018-12-05T22:04:28.967Z,72.15
2018-12-05T22:06:56.368Z,71.99
2018-12-05T22:09:23.735Z,72.29
2018-12-05T22:11:51.108Z,71.76
2018-12-05T22:14:18.451Z,72.01
2018-12-05T22:16:45.781Z,72.42
2018-12-05T22:19:13.222Z,72.35
2018-12-05T22:21:40.547Z,72.70
2018-12-05T22:24:08.032Z,72.10
2018-12-05T22:26:35.459Z,72.22
2018-12-05T22:29:02.803Z,71.55
2018-12-05T22:31:30.123Z,72.66
2018-12-05T22:33:59.203Z,72.07
2018-12-05T22:36:26.603Z,72.56
2018-12-05T22:38:53.936Z,72.31
2018-12-05T22:41:21.291Z,73.09
2018-12-05T22:43:48.595Z,72.55
2018-12-05T22:46:18.246Z,73.24
2018-12-05T22:48:45.666Z,73.01
2018-12-05T22:51:12.972Z,72.34
2018-12-05T22:53:40.301Z,73.05
2018-12-05T22:56:07.840Z,73.38
2018-12-05T22:58:35.155Z,73.61
2018-12-05T23:01:03.313Z,73.52
2018-12-05T23:03:32.843Z,73.49
2018-12-05T23:06:00.166Z,74.27
2018-12-05T23:08:28.127Z,74.31
2018-12-05T23:10:55.504Z,74.65
2018-12-05T23:13:22.823Z,75.30
2018-12-05T23:15:50.147Z,73.89
2018-12-05T23:18:17.479Z,75.26
2018-12-05T23:20:44.843Z,75.61
2018-12-05T23:23:12.163Z,75.01
2018-12-05T23:25:39.503Z,74.52
2018-12-05T23:28:06.995Z,74.77
2018-12-05T23:30:34.304Z,74.72
2018-12-05T23:33:01.724Z,75.00
2018-12-05T23:35:29.271Z,74.28
2018-12-05T23:37:56.591Z,74.69
2018-12-05T23:40:23.918Z,74.80
2018-12-05T23:42:51.387Z,74.69
2018-12-05T23:45:18.881Z,74.68
2018-12-05T23:47:46.312Z,74.84
2018-12-05T23:50:13.654Z,74.68
2018-12-05T23:52:40.990Z,74.35
2018-12-05T23:55:08.366Z,74.54
2018-12-05T23:57:35.743Z,74.73
